Time;durP1;ratioP1;P1;durP2;ratioP2;P2;SDS_P1;SDS_P2;PMS_P1;PMS_P2;Temp;Humidity;BMP_temperature;BMP_pressure;BME280_temperature;BME280_humidity;BME280_pressure;Samples;Min_cycle;Max_cycle;Signal;HPM_P1;HPM_P2
2021/11/12 00:16:27;;;;;;;39.67;13.40;;;;;;;;;;10202243;28;20161;-62
2021/11/12 00:21:24;;;;;;;91.75;39.40;;;;;;;;;;10190870;28;20134;-61
2021/11/12 00:26:22;;;;;;;101.77;34.30;;;;;;;;;;10173594;28;20133;-58
2021/11/12 00:36:47;;;;;;;108.28;39.05;;;;;;;;;;10198384;28;20085;-60
2021/11/12 00:41:56;;;;;;;69.07;20.77;;;;;;;;;;10193594;28;20324;-59
2021/11/12 00:47:00;;;;;;;44.90;14.27;;;;;;;;;;10202915;28;20313;-60
2021/11/12 00:52:10;;;;;;;41.35;17.98;;;;;;;;;;10202672;28;20097;-61
2021/11/12 00:57:08;;;;;;;102.05;38.80;;;;;;;;;;10196913;28;20046;-61
2021/11/12 01:02:05;;;;;;;60.83;24.73;;;;;;;;;;10200356;28;20062;-61
2021/11/12 01:07:04;;;;;;;53.53;19.73;;;;;;;;;;10198869;28;20038;-60
2021/11/12 01:12:01;;;;;;;79.70;30.80;;;;;;;;;;10185976;28;20300;-59
2021/11/12 01:16:58;;;;;;;62.30;26.63;;;;;;;;;;10197788;28;20327;-60
2021/11/12 01:21:56;;;;;;;83.43;33.60;;;;;;;;;;10198302;28;20037;-61
2021/11/12 01:26:53;;;;;;;61.73;23.20;;;;;;;;;;10197487;28;20478;-61
2021/11/12 01:31:50;;;;;;;19.90;10.80;;;;;;;;;;10194086;28;20496;-60
2021/11/12 01:36:48;;;;;;;38.93;15.90;;;;;;;;;;10196854;28;20062;-60
2021/11/12 01:41:50;;;;;;;37.45;13.13;;;;;;;;;;10194829;28;20046;-60
2021/11/12 01:46:57;;;;;;;40.40;12.07;;;;;;;;;;10195561;28;20054;-60
2021/11/12 01:52:10;;;;;;;37.78;15.00;;;;;;;;;;10181563;28;20045;-59
2021/11/12 02:02:25;;;;;;;27.13;11.00;;;;;;;;;;10200929;28;21576;-58
2021/11/12 02:07:26;;;;;;;21.55;10.88;;;;;;;;;;10186522;28;20376;-61
2021/11/12 02:12:33;;;;;;;24.53;12.23;;;;;;;;;;10183223;28;21713;-61
2021/11/12 02:17:34;;;;;;;31.60;13.27;;;;;;;;;;10202306;28;20245;-61
2021/11/12 02:22:33;;;;;;;28.95;11.75;;;;;;;;;;10197146;28;20039;-61
2021/11/12 02:28:07;;;;;;;;;;;;;;;;;;10194473;28;20120;-61
2021/11/12 02:33:01;;;;;;;22.65;10.65;;;;;;;;;;10194559;28;19928;-59
2021/11/12 02:37:59;;;;;;;35.63;14.48;;;;;;;;;;10214106;28;20038;-59
2021/11/12 02:42:56;;;;;;;41.38;16.75;;;;;;;;;;10199460;28;20034;-62
2021/11/12 02:47:54;;;;;;;46.13;17.83;;;;;;;;;;10211791;28;20057;-62
2021/11/12 02:53:00;;;;;;;67.90;24.23;;;;;;;;;;10182849;28;20038;-61
2021/11/12 02:57:58;;;;;;;50.25;20.92;;;;;;;;;;10182434;28;20050;-61
2021/11/12 03:02:56;;;;;;;76.85;28.75;;;;;;;;;;10192688;28;20112;-61
2021/11/12 03:07:54;;;;;;;63.72;24.85;;;;;;;;;;10191599;28;20046;-60
2021/11/12 03:12:52;;;;;;;70.60;27.95;;;;;;;;;;10191876;28;20064;-61
2021/11/12 03:17:51;;;;;;;94.23;37.93;;;;;;;;;;10195775;28;20077;-61
2021/11/12 03:23:02;;;;;;;88.50;37.83;;;;;;;;;;10217060;28;20026;-60
2021/11/12 03:28:17;;;;;;;66.28;24.63;;;;;;;;;;10204620;28;20070;-60
2021/11/12 04:49:25;;;;;;;51.45;24.48;;;;;;;;;;10215875;28;20129;-60
2021/11/12 05:09:39;;;;;;;45.42;18.30;;;;;;;;;;10213805;28;20034;-61
2021/11/12 05:50:09;;;;;;;56.90;21.88;;;;;;;;;;10203475;28;20617;-61
2021/11/12 05:55:09;;;;;;;47.55;18.80;;;;;;;;;;10195394;28;20038;-62
2021/11/12 06:00:10;;;;;;;57.13;21.88;;;;;;;;;;10196217;28;20073;-63
2021/11/12 06:05:09;;;;;;;59.88;19.30;;;;;;;;;;10190484;28;20029;-62
2021/11/12 06:10:07;;;;;;;57.38;21.83;;;;;;;;;;10191096;28;20330;-62
2021/11/12 06:15:04;;;;;;;56.00;22.67;;;;;;;;;;10180855;28;20011;-61
2021/11/12 06:20:02;;;;;;;56.25;21.25;;;;;;;;;;10196215;28;20030;-62
2021/11/12 06:25:00;;;;;;;65.40;23.05;;;;;;;;;;10182185;28;20031;-58
2021/11/12 06:29:57;;;;;;;45.23;20.73;;;;;;;;;;10192660;28;20455;-61
2021/11/12 06:34:55;;;;;;;62.67;22.47;;;;;;;;;;10190549;28;20685;-63
2021/11/12 06:39:52;;;;;;;58.37;21.63;;;;;;;;;;10179901;28;20184;-61
2021/11/12 06:49:59;;;;;;;67.47;23.63;;;;;;;;;;10188146;28;20207;-58
2021/11/12 06:55:01;;;;;;;49.47;21.63;;;;;;;;;;10172061;28;20510;-62
2021/11/12 06:59:58;;;;;;;64.28;25.48;;;;;;;;;;10220687;28;20521;-62
2021/11/12 07:04:55;;;;;;;54.60;21.87;;;;;;;;;;10190959;28;20057;-62
2021/11/12 07:09:53;;;;;;;61.70;21.23;;;;;;;;;;10202132;28;20491;-62
2021/11/12 07:14:50;;;;;;;56.93;23.23;;;;;;;;;;10197326;28;20039;-62
2021/11/12 07:19:48;;;;;;;60.50;21.60;;;;;;;;;;10225882;28;20042;-61
2021/11/12 07:24:45;;;;;;;62.53;23.23;;;;;;;;;;10208616;28;20050;-62
2021/11/12 07:29:45;;;;;;;59.60;23.43;;;;;;;;;;10207593;28;20042;-63
2021/11/12 07:34:45;;;;;;;62.30;23.10;;;;;;;;;;10199046;28;20034;-62
2021/11/12 07:49:37;;;;;;;67.30;22.50;;;;;;;;;;10195135;28;20042;-63
2021/11/12 07:54:36;;;;;;;61.53;22.17;;;;;;;;;;10165536;28;20030;-62
2021/11/12 07:59:33;;;;;;;;;;;;;;;;;;10173967;28;20923;-62
2021/11/12 08:04:31;;;;;;;88.68;29.48;;;;;;;;;;10194440;28;20307;-62
2021/11/12 08:09:36;;;;;;;59.70;22.43;;;;;;;;;;10204909;28;20061;-62
2021/11/12 08:15:11;;;;;;;59.53;21.63;;;;;;;;;;10204254;28;20042;-62
2021/11/12 08:50:21;;;;;;;67.03;21.40;;;;;;;;;;10180806;28;20635;-63
2021/11/12 08:55:25;;;;;;;85.35;26.38;;;;;;;;;;10195005;28;20074;-63
2021/11/12 09:00:24;;;;;;;72.85;22.50;;;;;;;;;;10194832;28;20604;-63
2021/11/12 09:05:21;;;;;;;82.07;22.20;;;;;;;;;;10187129;28;20038;-61
2021/11/12 09:10:20;;;;;;;61.10;22.27;;;;;;;;;;10177494;28;20538;-63
2021/11/12 09:15:24;;;;;;;123.55;39.10;;;;;;;;;;10200642;28;20058;-63
2021/11/12 09:20:22;;;;;;;81.35;24.17;;;;;;;;;;10185991;28;20052;-63
2021/11/12 09:25:19;;;;;;;45.15;16.33;;;;;;;;;;10188918;28;20043;-61
2021/11/12 09:30:21;;;;;;;85.00;25.60;;;;;;;;;;10177941;28;20385;-61
2021/11/12 09:35:19;;;;;;;60.40;19.70;;;;;;;;;;10178503;28;20438;-62
2021/11/12 09:40:17;;;;;;;63.25;21.15;;;;;;;;;;10177028;28;20783;-61
2021/11/12 09:45:15;;;;;;;60.87;22.63;;;;;;;;;;10172574;28;20069;-61
2021/11/12 09:50:16;;;;;;;46.35;18.27;;;;;;;;;;10180959;28;20270;-61
2021/11/12 09:55:14;;;;;;;44.85;15.57;;;;;;;;;;10148107;28;20053;-61
2021/11/12 10:00:13;;;;;;;52.07;19.87;;;;;;;;;;10176898;28;20039;-61
2021/11/12 10:05:12;;;;;;;55.78;20.80;;;;;;;;;;10185455;28;20041;-60
2021/11/12 10:10:14;;;;;;;60.95;19.67;;;;;;;;;;10169812;28;20042;-59
2021/11/12 10:15:19;;;;;;;51.88;19.52;;;;;;;;;;10189137;28;20039;-60
2021/11/12 10:20:18;;;;;;;55.83;18.73;;;;;;;;;;10182202;28;20329;-60
2021/11/12 10:25:16;;;;;;;56.50;21.13;;;;;;;;;;10176327;28;20187;-61
2021/11/12 10:30:15;;;;;;;45.22;18.75;;;;;;;;;;10178766;28;20120;-61
2021/11/12 10:35:23;;;;;;;42.65;16.85;;;;;;;;;;10193047;28;20639;-62
2021/11/12 10:40:21;;;;;;;39.13;14.23;;;;;;;;;;10206195;28;20042;-63
2021/11/12 10:45:21;;;;;;;40.15;15.57;;;;;;;;;;10199352;28;20428;-61
2021/11/12 10:50:19;;;;;;;36.10;16.83;;;;;;;;;;10210296;28;20070;-62
2021/11/12 10:55:22;;;;;;;22.80;11.35;;;;;;;;;;10189633;28;20043;-62
2021/11/12 11:00:20;;;;;;;25.23;12.40;;;;;;;;;;10171697;28;20054;-61
2021/11/12 11:05:22;;;;;;;19.70;10.53;;;;;;;;;;10181215;28;20084;-62
2021/11/12 11:10:24;;;;;;;26.63;11.23;;;;;;;;;;10193588;28;20044;-61
2021/11/12 11:15:32;;;;;;;56.67;22.52;;;;;;;;;;10192130;28;20523;-63
2021/11/12 11:20:30;;;;;;;82.78;32.85;;;;;;;;;;10192988;28;20391;-61
2021/11/12 11:25:28;;;;;;;84.53;30.17;;;;;;;;;;10192366;28;20046;-63
2021/11/12 11:30:26;;;;;;;50.80;21.20;;;;;;;;;;10194283;28;20053;-61
2021/11/12 11:35:24;;;;;;;48.45;18.17;;;;;;;;;;10196585;28;20085;-62
2021/11/12 11:40:22;;;;;;;46.63;17.57;;;;;;;;;;10198793;28;20038;-62
2021/11/12 11:45:19;;;;;;;31.58;12.93;;;;;;;;;;10190567;28;20058;-62
2021/11/12 11:50:43;;;;;;;42.83;16.50;;;;;;;;;;10196966;28;20129;-62
2021/11/12 11:55:40;;;;;;;27.23;11.07;;;;;;;;;;10189436;28;20035;-62
2021/11/12 12:00:38;;;;;;;28.37;11.20;;;;;;;;;;10192537;28;20034;-61
2021/11/12 12:05:56;;;;;;;22.73;10.00;;;;;;;;;;10187007;28;20087;-60
2021/11/12 12:11:16;;;;;;;22.77;9.13;;;;;;;;;;10180683;28;20050;-62
2021/11/12 12:16:21;;;;;;;19.98;8.30;;;;;;;;;;10173657;28;20471;-60
2021/11/12 12:22:09;;;;;;;15.55;8.05;;;;;;;;;;10178190;28;20138;-60
2021/11/12 12:39:46;;;;;;;20.08;8.45;;;;;;;;;;10098403;28;20197;-60
2021/11/12 13:22:15;;;;;;;11.43;6.70;;;;;;;;;;10127402;28;20038;-60
2021/11/12 13:27:12;;;;;;;13.55;6.22;;;;;;;;;;10204612;28;20508;-60
2021/11/12 13:32:09;;;;;;;8.50;4.93;;;;;;;;;;10180099;28;20054;-61
2021/11/12 13:37:14;;;;;;;7.43;5.50;;;;;;;;;;10184494;28;20488;-60
2021/11/12 13:42:12;;;;;;;9.00;4.97;;;;;;;;;;10169725;28;20068;-61
2021/11/12 13:47:11;;;;;;;5.63;4.20;;;;;;;;;;10199202;28;20038;-60
2021/11/12 13:52:10;;;;;;;8.55;4.57;;;;;;;;;;10192663;28;20138;-61
2021/11/12 13:57:12;;;;;;;8.25;4.38;;;;;;;;;;10179743;28;20069;-59
2021/11/12 14:02:10;;;;;;;6.93;4.45;;;;;;;;;;10172372;28;20042;-61
2021/11/12 14:07:14;;;;;;;6.97;4.03;;;;;;;;;;10192909;28;20333;-61
2021/11/12 14:12:12;;;;;;;7.85;3.72;;;;;;;;;;10180984;28;20050;-61
2021/11/12 14:17:22;;;;;;;7.15;4.80;;;;;;;;;;10183868;28;20106;-61
2021/11/12 14:22:30;;;;;;;5.00;2.80;;;;;;;;;;10160956;28;20038;-61
2021/11/12 14:32:43;;;;;;;4.53;3.33;;;;;;;;;;10196050;28;20344;-60
2021/11/12 14:38:29;;;;;;;2.53;2.33;;;;;;;;;;10172818;28;21215;-61
2021/11/12 14:43:48;;;;;;;5.85;3.08;;;;;;;;;;10178467;28;20041;-63
2021/11/12 14:48:27;;;;;;;;;;;;;;;;;;10186312;28;20133;-62
2021/11/12 14:53:52;;;;;;;3.80;2.10;;;;;;;;;;10180567;28;19926;-60
2021/11/12 14:59:03;;;;;;;4.10;2.60;;;;;;;;;;10185453;28;20046;-62
2021/11/12 15:04:01;;;;;;;4.50;2.42;;;;;;;;;;10166902;28;20042;-63
2021/11/12 15:09:17;;;;;;;3.10;2.50;;;;;;;;;;10169551;28;20538;-62
2021/11/12 15:14:21;;;;;;;4.32;2.70;;;;;;;;;;10184530;28;20089;-63
2021/11/12 15:19:20;;;;;;;3.75;2.35;;;;;;;;;;10182504;28;20066;-62
2021/11/12 15:24:26;;;;;;;;;;;;;;;;;;10196156;28;20043;-63
2021/11/12 15:29:31;;;;;;;2.83;1.58;;;;;;;;;;10190786;28;19922;-62
2021/11/12 15:34:30;;;;;;;3.25;1.95;;;;;;;;;;10191432;28;20108;-60
2021/11/12 15:39:53;;;;;;;3.45;1.92;;;;;;;;;;10198393;28;20555;-61
2021/11/12 15:44:55;;;;;;;4.65;2.88;;;;;;;;;;10184740;28;20756;-61
2021/11/12 15:50:01;;;;;;;3.75;3.03;;;;;;;;;;10191229;28;20095;-62
2021/11/12 15:55:21;;;;;;;5.97;2.80;;;;;;;;;;10184148;28;20500;-61
2021/11/12 16:25:53;;;;;;;4.57;2.70;;;;;;;;;;10179962;28;20085;-62
2021/11/12 16:31:00;;;;;;;6.97;3.35;;;;;;;;;;10186393;28;20046;-62
2021/11/12 16:36:03;;;;;;;4.47;3.25;;;;;;;;;;10164921;28;20050;-61
2021/11/12 16:46:51;;;;;;;7.28;3.20;;;;;;;;;;10192032;28;20129;-62
2021/11/12 17:48:11;;;;;;;12.98;6.25;;;;;;;;;;10181116;28;20479;-59
2021/11/12 21:47:08;;;;;;;20.67;8.95;;;;;;;;;;10191111;28;20042;-62
2021/11/12 21:52:08;;;;;;;16.95;7.63;;;;;;;;;;10189987;28;20396;-62
2021/11/12 21:57:05;;;;;;;20.10;9.33;;;;;;;;;;10198027;28;20038;-61
2021/11/12 22:02:03;;;;;;;17.30;9.30;;;;;;;;;;10188365;28;20038;-62
2021/11/12 22:07:00;;;;;;;20.43;7.67;;;;;;;;;;10164225;28;20043;-62
2021/11/12 22:11:58;;;;;;;17.67;9.33;;;;;;;;;;10201620;28;20057;-61
2021/11/12 22:16:56;;;;;;;10.95;7.03;;;;;;;;;;10181592;28;20424;-62
2021/11/12 22:21:54;;;;;;;17.42;9.35;;;;;;;;;;10196106;28;20042;-61
2021/11/12 22:26:52;;;;;;;19.53;9.57;;;;;;;;;;10202447;28;20090;-61
2021/11/12 22:31:49;;;;;;;21.77;10.27;;;;;;;;;;10214430;28;20042;-61
2021/11/12 22:36:47;;;;;;;20.73;9.37;;;;;;;;;;10170051;28;20046;-62
2021/11/12 22:41:45;;;;;;;18.10;9.80;;;;;;;;;;10222976;28;20035;-60
2021/11/12 22:46:43;;;;;;;20.20;10.13;;;;;;;;;;10222581;28;25696;-62
2021/11/12 22:51:40;;;;;;;19.75;9.50;;;;;;;;;;10208083;28;20113;-61
2021/11/12 22:56:38;;;;;;;17.17;7.63;;;;;;;;;;10186709;28;20093;-63
2021/11/12 23:01:35;;;;;;;16.47;8.07;;;;;;;;;;10218831;28;20040;-62
2021/11/12 23:06:33;;;;;;;12.77;7.40;;;;;;;;;;10183964;28;20025;-62
2021/11/12 23:11:30;;;;;;;22.10;11.17;;;;;;;;;;10211945;28;20045;-63
2021/11/12 23:16:28;;;;;;;19.77;9.63;;;;;;;;;;10220154;28;20096;-63
2021/11/12 23:21:25;;;;;;;24.33;11.00;;;;;;;;;;10209043;28;20472;-64
2021/11/12 23:26:23;;;;;;;17.73;9.53;;;;;;;;;;10198647;28;20570;-63
2021/11/12 23:31:26;;;;;;;24.65;11.43;;;;;;;;;;10219627;28;20483;-63
2021/11/12 23:36:23;;;;;;;21.70;12.33;;;;;;;;;;10181337;28;20038;-63
2021/11/12 23:41:22;;;;;;;24.42;12.98;;;;;;;;;;10199443;28;20030;-63
2021/11/12 23:46:23;;;;;;;16.60;9.50;;;;;;;;;;10193089;28;20039;-63
2021/11/12 23:51:24;;;;;;;19.53;9.83;;;;;;;;;;10202684;28;20038;-62
2021/11/12 23:56:28;;;;;;;17.45;8.15;;;;;;;;;;10228947;28;20065;-61
